Time;durP1;ratioP1;P1;durP2;ratioP2;P2;SDS_P1;SDS_P2;PMS_P1;PMS_P2;Temp;Humidity;BMP_temperature;BMP_pressure;BME280_temperature;BME280_humidity;BME280_pressure;Samples;Min_cycle;Max_cycle;Signal;HPM_P1;HPM_P2
2022/05/19 00:00:21;;;;;;;;;;;;;;;;;;5110458;28;19934;-51
2022/05/19 00:03:06;;;;;;;;;;;;;;;;;;5113816;27;19972;-52
2022/05/19 00:05:52;;;;;;;;;;;;;;;;;;5113595;27;19918;-54
2022/05/19 00:08:37;;;;;;;;;;;;;;;;;;5106258;28;20367;-55
2022/05/19 00:11:23;;;;;;;;;;;;;;;;;;5109379;28;19918;-50
2022/05/19 00:14:08;;;;;;;;;;;;;;;;;;5110073;28;20384;-55
2022/05/19 00:16:56;;;;;;;;;;;;;;;;;;5115233;27;20311;-52
2022/05/19 00:19:41;;;;;;;;;;;;;;;;;;5112098;28;19973;-65
2022/05/19 00:22:27;;;;;;;;;;;;;;;;;;5110313;28;19912;-61
2022/05/19 00:25:12;;;;;;;;;;;;;;;;;;5091434;28;20405;-62
2022/05/19 00:27:58;;;;;;;;;;;;;;;;;;5111330;28;20275;-61
2022/05/19 00:30:43;;;;;;;;;;;;;;;;;;5107818;28;19942;-60
2022/05/19 00:33:29;;;;;;;;;;;;;;;;;;5112466;27;19951;-60
2022/05/19 00:36:14;;;;;;;;;;;;;;;;;;5109124;28;19912;-64
2022/05/19 00:39:00;;;;;;;;;;;;;;;;;;5112240;27;20004;-57
2022/05/19 00:41:45;;;;;;;;;;;;;;;;;;5104640;28;19911;-54
2022/05/19 00:44:31;;;;;;;;;;;;;;;;;;5106419;28;20263;-57
2022/05/19 00:47:16;;;;;;;;;;;;;;;;;;5108945;28;19915;-56
2022/05/19 00:50:02;;;;;;;;;;;;;;;;;;5112142;27;20314;-58
2022/05/19 00:52:47;;;;;;;;;;;;;;;;;;5108423;28;19927;-56
2022/05/19 00:55:33;;;;;;;;;;;;;;;;;;5110339;28;19979;-64
2022/05/19 00:58:18;;;;;;;;;;;;;;;;;;5094932;28;20010;-70
2022/05/19 01:01:03;;;;;;;;;;;;;;;;;;5112511;28;19912;-71
2022/05/19 01:03:49;;;;;;;;;;;;;;;;;;5091718;28;19912;-71
2022/05/19 01:06:35;;;;;;;;;;;;;;;;;;5107812;28;20394;-69
2022/05/19 01:09:20;;;;;;;;;;;;;;;;;;5115262;27;20441;-70
2022/05/19 01:12:06;;;;;;;;;;;;;;;;;;5111628;27;19918;-70
2022/05/19 01:14:51;;;;;;;;;;;;;;;;;;5108780;27;19912;-61
2022/05/19 01:17:36;;;;;;;;;;;;;;;;;;5095248;28;19920;-56
2022/05/19 01:20:22;;;;;;;;;;;;;;;;;;5112145;28;19969;-58
2022/05/19 01:23:07;;;;;;;;;;;;;;;;;;5113597;27;19915;-58
2022/05/19 01:25:53;;;;;;;;;;;;;;;;;;5112894;27;19911;-57
2022/05/19 01:28:38;;;;;;;;;;;;;;;;;;5106468;28;19969;-57
2022/05/19 01:31:24;;;;;;;;;;;;;;;;;;5103346;28;20294;-64
2022/05/19 01:34:09;;;;;;;;;;;;;;;;;;5110282;28;19961;-77
2022/05/19 01:36:55;;;;;;;;;;;;;;;;;;5109470;27;19912;-77
2022/05/19 01:39:40;;;;;;;;;;;;;;;;;;5110002;27;19918;-80
2022/05/19 01:42:26;;;;;;;;;;;;;;;;;;5104487;28;19998;-77
2022/05/19 01:45:11;;;;;;;;;;;;;;;;;;5113666;27;20286;-77
2022/05/19 01:47:56;;;;;;;;;;;;;;;;;;5111226;27;19919;-78
2022/05/19 01:50:42;;;;;;;;;;;;;;;;;;5109343;27;19955;-74
2022/05/19 01:53:27;;;;;;;;;;;;;;;;;;5107470;28;19924;-79
2022/05/19 01:56:13;;;;;;;;;;;;;;;;;;5094697;28;19912;-77
2022/05/19 01:58:58;;;;;;;;;;;;;;;;;;5103731;28;19958;-77
2022/05/19 02:01:44;;;;;;;;;;;;;;;;;;5109463;28;20283;-78
2022/05/19 02:04:29;;;;;;;;;;;;;;;;;;5090848;28;19938;-77
2022/05/19 02:07:15;;;;;;;;;;;;;;;;;;5110626;27;19912;-76
2022/05/19 02:10:00;;;;;;;;;;;;;;;;;;5096349;27;19924;-60
2022/05/19 02:12:46;;;;;;;;;;;;;;;;;;5109540;27;19968;-61
2022/05/19 02:15:31;;;;;;;;;;;;;;;;;;5094198;28;19923;-61
2022/05/19 02:18:17;;;;;;;;;;;;;;;;;;5111961;27;19920;-62
2022/05/19 02:21:02;;;;;;;;;;;;;;;;;;5087454;28;20347;-63
2022/05/19 02:23:48;;;;;;;;;;;;;;;;;;5114105;27;19916;-61
2022/05/19 02:26:33;;;;;;;;;;;;;;;;;;5089823;28;20845;-61
2022/05/19 02:29:22;;;;;;;;;;;;;;;;;;5108301;28;20286;-60
2022/05/19 02:32:07;;;;;;;;;;;;;;;;;;5112423;27;19923;-60
2022/05/19 02:34:53;;;;;;;;;;;;;;;;;;5095101;28;19923;-59
2022/05/19 02:37:38;;;;;;;;;;;;;;;;;;5107960;27;19926;-59
2022/05/19 02:40:24;;;;;;;;;;;;;;;;;;5107461;28;20405;-61
2022/05/19 02:43:09;;;;;;;;;;;;;;;;;;5104368;28;19965;-60
2022/05/19 02:45:55;;;;;;;;;;;;;;;;;;5108779;28;19918;-65
2022/05/19 02:48:40;;;;;;;;;;;;;;;;;;5103691;28;20209;-76
2022/05/19 02:51:25;;;;;;;;;;;;;;;;;;5090349;28;19919;-75
2022/05/19 02:54:11;;;;;;;;;;;;;;;;;;5108066;28;19920;-76
2022/05/19 02:56:56;;;;;;;;;;;;;;;;;;5090716;28;19998;-76
2022/05/19 02:59:43;;;;;;;;;;;;;;;;;;5095651;28;19962;-74
2022/05/19 03:02:28;;;;;;;;;;;;;;;;;;5101540;28;20372;-76
2022/05/19 03:05:13;;;;;;;;;;;;;;;;;;5103936;28;19912;-76
2022/05/19 03:07:59;;;;;;;;;;;;;;;;;;5114394;28;19927;-59
2022/05/19 03:10:44;;;;;;;;;;;;;;;;;;5108073;28;20588;-59
2022/05/19 03:13:30;;;;;;;;;;;;;;;;;;5110061;28;19932;-59
2022/05/19 03:16:15;;;;;;;;;;;;;;;;;;5106378;28;19912;-58
2022/05/19 03:19:01;;;;;;;;;;;;;;;;;;5107151;28;20332;-62
2022/05/19 03:21:46;;;;;;;;;;;;;;;;;;5112284;28;19915;-67
2022/05/19 03:24:32;;;;;;;;;;;;;;;;;;5112254;28;19916;-50
2022/05/19 03:27:19;;;;;;;;;;;;;;;;;;5104042;28;19981;-54
2022/05/19 03:30:05;;;;;;;;;;;;;;;;;;5108226;28;19966;-53
2022/05/19 03:32:50;;;;;;;;;;;;;;;;;;5113591;28;19912;-50
2022/05/19 03:35:36;;;;;;;;;;;;;;;;;;5103067;27;19965;-53
2022/05/19 03:38:21;;;;;;;;;;;;;;;;;;5115250;27;20390;-56
2022/05/19 03:41:07;;;;;;;;;;;;;;;;;;5107624;27;19920;-72
2022/05/19 03:43:52;;;;;;;;;;;;;;;;;;5112063;28;19911;-56
2022/05/19 03:46:38;;;;;;;;;;;;;;;;;;5111535;27;19950;-56
2022/05/19 03:49:23;;;;;;;;;;;;;;;;;;5110999;28;20010;-58
2022/05/19 03:52:08;;;;;;;;;;;;;;;;;;5112467;27;20051;-55
2022/05/19 03:54:54;;;;;;;;;;;;;;;;;;5112176;27;19927;-55
2022/05/19 03:57:40;;;;;;;;;;;;;;;;;;5091375;28;20015;-55
2022/05/19 04:00:26;;;;;;;;;;;;;;;;;;5111712;28;19951;-55
2022/05/19 04:03:11;;;;;;;;;;;;;;;;;;5111034;22;19931;-67
2022/05/19 04:05:57;;;;;;;;;;;;;;;;;;5086651;28;19917;-67
2022/05/19 04:08:42;;;;;;;;;;;;;;;;;;5093509;28;19931;-69
2022/05/19 04:11:28;;;;;;;;;;;;;;;;;;5090950;28;20295;-68
2022/05/19 04:14:14;;;;;;;;;;;;;;;;;;5091663;28;19912;-69
2022/05/19 04:17:00;;;;;;;;;;;;;;;;;;5087536;28;20394;-61
2022/05/19 04:19:45;;;;;;;;;;;;;;;;;;5090645;28;19912;-66
2022/05/19 04:22:31;;;;;;;;;;;;;;;;;;5087875;28;20363;-65
2022/05/19 04:25:16;;;;;;;;;;;;;;;;;;5092540;28;20086;-64
2022/05/19 04:28:02;;;;;;;;;;;;;;;;;;5087911;28;19924;-65
2022/05/19 04:30:47;;;;;;;;;;;;;;;;;;5086029;28;19916;-64
2022/05/19 04:33:32;;;;;;;;;;;;;;;;;;5091305;28;19913;-63
2022/05/19 04:36:18;;;;;;;;;;;;;;;;;;5094355;28;20012;-58
2022/05/19 04:39:03;;;;;;;;;;;;;;;;;;5098007;28;19911;-65
2022/05/19 04:41:49;;;;;;;;;;;;;;;;;;5087998;28;19951;-68
2022/05/19 04:44:34;;;;;;;;;;;;;;;;;;5085595;28;19913;-69
2022/05/19 04:47:20;;;;;;;;;;;;;;;;;;5073043;28;19912;-66
2022/05/19 04:50:05;;;;;;;;;;;;;;;;;;5084600;28;19920;-66
2022/05/19 04:52:51;;;;;;;;;;;;;;;;;;5091464;28;20391;-67
2022/05/19 04:55:37;;;;;;;;;;;;;;;;;;5084556;28;20054;-67
2022/05/19 04:58:22;;;;;;;;;;;;;;;;;;5082432;28;19919;-60
2022/05/19 05:01:08;;;;;;;;;;;;;;;;;;5085895;28;19912;-61
2022/05/19 05:03:53;;;;;;;;;;;;;;;;;;5087241;28;19920;-60
2022/05/19 05:06:38;;;;;;;;;;;;;;;;;;5079211;28;19959;-63
2022/05/19 05:09:24;;;;;;;;;;;;;;;;;;5087675;28;19920;-58
2022/05/19 05:12:09;;;;;;;;;;;;;;;;;;5090839;28;19912;-62
2022/05/19 05:14:55;;;;;;;;;;;;;;;;;;5082427;28;19998;-59
2022/05/19 05:17:40;;;;;;;;;;;;;;;;;;5084602;28;19948;-61
2022/05/19 05:20:26;;;;;;;;;;;;;;;;;;5086154;28;19919;-59
2022/05/19 05:23:11;;;;;;;;;;;;;;;;;;5075515;28;19958;-59
2022/05/19 05:25:57;;;;;;;;;;;;;;;;;;5090875;28;19916;-58
2022/05/19 05:28:42;;;;;;;;;;;;;;;;;;5092379;28;19920;-62
2022/05/19 05:31:28;;;;;;;;;;;;;;;;;;5091677;28;19920;-64
2022/05/19 05:34:13;;;;;;;;;;;;;;;;;;5069358;28;20326;-63
2022/05/19 05:36:58;;;;;;;;;;;;;;;;;;5089997;27;20006;-66
2022/05/19 05:39:44;;;;;;;;;;;;;;;;;;5079452;28;19916;-68
2022/05/19 05:42:30;;;;;;;;;;;;;;;;;;5090539;28;19912;-65
2022/05/19 05:45:15;;;;;;;;;;;;;;;;;;5086252;28;19986;-64
2022/05/19 05:48:00;;;;;;;;;;;;;;;;;;5087181;28;19982;-67
2022/05/19 05:50:46;;;;;;;;;;;;;;;;;;5088256;28;19916;-59
2022/05/19 05:53:31;;;;;;;;;;;;;;;;;;5089563;28;19916;-59
2022/05/19 05:56:17;;;;;;;;;;;;;;;;;;5087996;28;19923;-60
2022/05/19 05:59:02;;;;;;;;;;;;;;;;;;5091341;28;20401;-60
2022/05/19 06:01:48;;;;;;;;;;;;;;;;;;5082615;28;19928;-57
2022/05/19 06:04:33;;;;;;;;;;;;;;;;;;5093067;28;19912;-61
2022/05/19 06:07:19;;;;;;;;;;;;;;;;;;5091657;28;19957;-62
2022/05/19 06:10:04;;;;;;;;;;;;;;;;;;5086967;28;20409;-65
2022/05/19 06:12:50;;;;;;;;;;;;;;;;;;5084240;28;19913;-63
2022/05/19 06:15:35;;;;;;;;;;;;;;;;;;5083715;28;19939;-62
2022/05/19 06:18:21;;;;;;;;;;;;;;;;;;5090956;28;19921;-61
2022/05/19 06:21:06;;;;;;;;;;;;;;;;;;5078993;28;19913;-63
2022/05/19 06:23:52;;;;;;;;;;;;;;;;;;5089060;28;19912;-62
2022/05/19 06:26:38;;;;;;;;;;;;;;;;;;5087311;28;20402;-62
2022/05/19 06:29:24;;;;;;;;;;;;;;;;;;5078002;28;19926;-71
2022/05/19 06:32:09;;;;;;;;;;;;;;;;;;5089946;28;20382;-69
2022/05/19 06:34:55;;;;;;;;;;;;;;;;;;5090737;28;19908;-74
2022/05/19 06:37:40;;;;;;;;;;;;;;;;;;5094363;28;19912;-74
2022/05/19 06:40:26;;;;;;;;;;;;;;;;;;5085564;28;19916;-74
2022/05/19 06:43:11;;;;;;;;;;;;;;;;;;5084919;28;19912;-71
2022/05/19 06:45:57;;;;;;;;;;;;;;;;;;5088906;28;19926;-62
2022/05/19 06:48:43;;;;;;;;;;;;;;;;;;5076192;28;19917;-64
2022/05/19 06:51:29;;;;;;;;;;;;;;;;;;5089527;28;19976;-64
2022/05/19 06:54:14;;;;;;;;;;;;;;;;;;5075615;28;19912;-65
2022/05/19 06:57:01;;;;;;;;;;;;;;;;;;5090570;28;20087;-64
2022/05/19 06:59:47;;;;;;;;;;;;;;;;;;5084472;28;19924;-68
2022/05/19 07:02:32;;;;;;;;;;;;;;;;;;5075754;28;19927;-66
2022/05/19 07:05:17;;;;;;;;;;;;;;;;;;5089192;28;19912;-63
2022/05/19 07:08:03;;;;;;;;;;;;;;;;;;5091825;28;19924;-64
2022/05/19 07:10:49;;;;;;;;;;;;;;;;;;5088149;28;19991;-66
2022/05/19 07:13:34;;;;;;;;;;;;;;;;;;5087486;28;20400;-62
2022/05/19 07:16:20;;;;;;;;;;;;;;;;;;5088979;28;19919;-64
2022/05/19 07:22:09;;;;;;;;;;;;;;;;;;5085677;28;19913;-62
2022/05/19 07:24:55;;;;;;;;;;;;;;;;;;5087033;28;20337;-65
2022/05/19 07:27:41;;;;;;;;;;;;;;;;;;5091958;28;19912;-63
2022/05/19 07:30:26;;;;;;;;;;;;;;;;;;5088795;28;19950;-63
2022/05/19 07:33:12;;;;;;;;;;;;;;;;;;5089918;28;19912;-63
2022/05/19 07:35:58;;;;;;;;;;;;;;;;;;5079441;28;19927;-62
2022/05/19 07:38:43;;;;;;;;;;;;;;;;;;5086403;28;20003;-64
2022/05/19 07:41:29;;;;;;;;;;;;;;;;;;5082243;28;19943;-60
2022/05/19 07:44:15;;;;;;;;;;;;;;;;;;5085996;28;19958;-65
2022/05/19 07:47:01;;;;;;;;;;;;;;;;;;5090962;28;20348;-67
2022/05/19 07:49:46;;;;;;;;;;;;;;;;;;5088212;28;19975;-66
2022/05/19 07:52:31;;;;;;;;;;;;;;;;;;5088528;28;19912;-66
2022/05/19 07:55:17;;;;;;;;;;;;;;;;;;5088872;28;19942;-66
2022/05/19 07:58:03;;;;;;;;;;;;;;;;;;5088020;28;19919;-59
2022/05/19 08:00:51;;;;;;;;;;;;;;;;;;5088966;28;20380;-62
2022/05/19 08:03:36;;;;;;;;;;;;;;;;;;5083762;28;19920;-63
2022/05/19 08:06:22;;;;;;;;;;;;;;;;;;5091409;28;19912;-62
2022/05/19 08:12:11;;;;;;;;;;;;;;;;;;5089668;28;20310;-63
2022/05/19 08:18:01;;;;;;;;;;;;;;;;;;5092185;27;20045;-65
2022/05/19 08:20:47;;;;;;;;;;;;;;;;;;5084873;28;20371;-65
2022/05/19 08:23:32;;;;;;;;;;;;;;;;;;5081832;28;19939;-66
2022/05/19 08:26:18;;;;;;;;;;;;;;;;;;5089934;28;19912;-66
2022/05/19 08:29:03;;;;;;;;;;;;;;;;;;5087330;28;20405;-69
2022/05/19 08:31:48;;;;;;;;;;;;;;;;;;5086471;28;19912;-69
2022/05/19 08:34:34;;;;;;;;;;;;;;;;;;5090728;28;19934;-66
2022/05/19 08:37:19;;;;;;;;;;;;;;;;;;5089618;28;20011;-68
2022/05/19 08:40:05;;;;;;;;;;;;;;;;;;5084750;28;19955;-68
2022/05/19 08:42:51;;;;;;;;;;;;;;;;;;5075713;28;19912;-68
2022/05/19 08:45:36;;;;;;;;;;;;;;;;;;5077768;28;19939;-69
2022/05/19 08:48:22;;;;;;;;;;;;;;;;;;5092589;28;19952;-68
2022/05/19 08:51:07;;;;;;;;;;;;;;;;;;5097806;28;19916;-69
2022/05/19 08:53:53;;;;;;;;;;;;;;;;;;5084202;28;19928;-72
2022/05/19 08:56:41;;;;;;;;;;;;;;;;;;5075220;28;19922;-69
2022/05/19 08:59:26;;;;;;;;;;;;;;;;;;5090962;28;19916;-67
2022/05/19 09:02:13;;;;;;;;;;;;;;;;;;5082473;28;19959;-69
2022/05/19 09:04:59;;;;;;;;;;;;;;;;;;5089400;28;19995;-70
2022/05/19 09:07:56;;;;;;;;;;;;;;;;;;5084552;28;19913;-69
2022/05/19 09:10:42;;;;;;;;;;;;;;;;;;5079796;28;19957;-68
2022/05/19 09:13:27;;;;;;;;;;;;;;;;;;5095276;28;20321;-70
2022/05/19 09:16:13;;;;;;;;;;;;;;;;;;5105496;22;19946;-71
2022/05/19 09:18:58;;;;;;;;;;;;;;;;;;5091462;28;19995;-71
2022/05/19 09:21:44;;;;;;;;;;;;;;;;;;5090832;28;19920;-71
2022/05/19 09:24:29;;;;;;;;;;;;;;;;;;5090036;28;19999;-72
2022/05/19 09:27:16;;;;;;;;;;;;;;;;;;5082483;28;19935;-71
2022/05/19 09:30:01;;;;;;;;;;;;;;;;;;5055895;28;19924;-67
2022/05/19 09:32:47;;;;;;;;;;;;;;;;;;5073684;28;19960;-68
2022/05/19 09:35:32;;;;;;;;;;;;;;;;;;5071395;28;19913;-68
2022/05/19 09:38:18;;;;;;;;;;;;;;;;;;5073123;28;19971;-68
2022/05/19 09:41:03;;;;;;;;;;;;;;;;;;5056474;28;20356;-68
2022/05/19 09:43:49;;;;;;;;;;;;;;;;;;5070804;28;19959;-67
2022/05/19 09:46:34;;;;;;;;;;;;;;;;;;5076476;28;19921;-68
2022/05/19 09:49:20;;;;;;;;;;;;;;;;;;5062538;28;19921;-68
2022/05/19 09:52:05;;;;;;;;;;;;;;;;;;5072010;27;20353;-65
2022/05/19 09:54:51;;;;;;;;;;;;;;;;;;5079726;28;19912;-66
2022/05/19 09:57:36;;;;;;;;;;;;;;;;;;5081274;28;19932;-67
2022/05/19 10:00:25;;;;;;;;;;;;;;;;;;5069986;28;19966;-66
2022/05/19 10:03:11;;;;;;;;;;;;;;;;;;5070283;28;20314;-67
2022/05/19 10:05:56;;;;;;;;;;;;;;;;;;5059854;28;19920;-66
2022/05/19 10:08:41;;;;;;;;;;;;;;;;;;5073094;28;19920;-68
2022/05/19 10:11:27;;;;;;;;;;;;;;;;;;5072459;28;19920;-67
2022/05/19 10:14:12;;;;;;;;;;;;;;;;;;5069762;28;19920;-65
2022/05/19 10:16:58;;;;;;;;;;;;;;;;;;5044852;28;20428;-67
2022/05/19 10:19:43;;;;;;;;;;;;;;;;;;5073378;28;20371;-69
2022/05/19 10:22:29;;;;;;;;;;;;;;;;;;5073844;28;19919;-64
2022/05/19 10:25:16;;;;;;;;;;;;;;;;;;5076555;28;19958;-66
2022/05/19 10:31:06;;;;;;;;;;;;;;;;;;5072451;28;20402;-64
2022/05/19 10:33:51;;;;;;;;;;;;;;;;;;5066679;28;19917;-70
2022/05/19 10:36:37;;;;;;;;;;;;;;;;;;5069956;28;20294;-71
2022/05/19 10:39:22;;;;;;;;;;;;;;;;;;5078862;28;19912;-67
2022/05/19 10:42:09;;;;;;;;;;;;;;;;;;5080381;28;19912;-66
2022/05/19 10:44:54;;;;;;;;;;;;;;;;;;5056963;28;20451;-73
2022/05/19 10:47:40;;;;;;;;;;;;;;;;;;5071011;28;19912;-65
2022/05/19 10:50:26;;;;;;;;;;;;;;;;;;5059408;28;19994;-66
2022/05/19 10:53:11;;;;;;;;;;;;;;;;;;5068058;28;19912;-67
2022/05/19 10:55:56;;;;;;;;;;;;;;;;;;5074921;28;20408;-66
2022/05/19 10:58:42;;;;;;;;;;;;;;;;;;5073261;28;20134;-67
2022/05/19 11:01:27;;;;;;;;;;;;;;;;;;5067950;28;20022;-67
2022/05/19 11:04:13;;;;;;;;;;;;;;;;;;5079639;28;19999;-65
2022/05/19 11:06:58;;;;;;;;;;;;;;;;;;5069298;28;19917;-67
2022/05/19 11:09:44;;;;;;;;;;;;;;;;;;5065563;28;19928;-67
2022/05/19 11:12:29;;;;;;;;;;;;;;;;;;5069373;28;19912;-67
2022/05/19 11:15:16;;;;;;;;;;;;;;;;;;5068882;28;20423;-65
2022/05/19 11:18:01;;;;;;;;;;;;;;;;;;5065518;28;19919;-69
2022/05/19 11:20:47;;;;;;;;;;;;;;;;;;5069463;28;20011;-72
2022/05/19 11:23:32;;;;;;;;;;;;;;;;;;5057085;28;20425;-70
2022/05/19 11:26:24;;;;;;;;;;;;;;;;;;5059755;28;19915;-69
2022/05/19 11:29:09;;;;;;;;;;;;;;;;;;5068760;28;20396;-68
2022/05/19 11:31:55;;;;;;;;;;;;;;;;;;5071919;28;19955;-68
2022/05/19 11:34:41;;;;;;;;;;;;;;;;;;5070198;28;19962;-68
2022/05/19 11:37:26;;;;;;;;;;;;;;;;;;5048205;28;20003;-68
2022/05/19 11:40:12;;;;;;;;;;;;;;;;;;5068736;28;20375;-68
2022/05/19 11:42:57;;;;;;;;;;;;;;;;;;5074544;28;19916;-70
2022/05/19 11:45:43;;;;;;;;;;;;;;;;;;5071309;28;20064;-69
2022/05/19 11:57:41;;;;;;;;;;;;;;;;;;5069026;28;20402;-67
2022/05/19 12:00:26;;;;;;;;;;;;;;;;;;5074353;28;19959;-69
2022/05/19 12:03:12;;;;;;;;;;;;;;;;;;5064375;28;19912;-71
2022/05/19 12:05:58;;;;;;;;;;;;;;;;;;5074862;28;19982;-70
2022/05/19 12:08:44;;;;;;;;;;;;;;;;;;5068426;28;19951;-72
2022/05/19 12:11:29;;;;;;;;;;;;;;;;;;5068730;28;20276;-72
2022/05/19 12:14:16;;;;;;;;;;;;;;;;;;5074228;28;19920;-72
2022/05/19 12:17:03;;;;;;;;;;;;;;;;;;5062712;28;20423;-63
2022/05/19 12:20:02;;;;;;;;;;;;;;;;;;5073873;28;20339;-70
2022/05/19 12:22:48;;;;;;;;;;;;;;;;;;5069506;28;19916;-70
2022/05/19 12:25:33;;;;;;;;;;;;;;;;;;5069924;28;19921;-72
2022/05/19 12:28:18;;;;;;;;;;;;;;;;;;5080052;28;19962;-72
2022/05/19 12:34:08;;;;;;;;;;;;;;;;;;5071645;28;19970;-71
2022/05/19 12:36:54;;;;;;;;;;;;;;;;;;5078949;28;19953;-70
2022/05/19 12:39:39;;;;;;;;;;;;;;;;;;5065011;28;20477;-71
2022/05/19 12:42:25;;;;;;;;;;;;;;;;;;5085153;28;19922;-68
2022/05/19 12:45:11;;;;;;;;;;;;;;;;;;5071489;28;19963;-69
2022/05/19 12:47:56;;;;;;;;;;;;;;;;;;5084783;28;19912;-68
2022/05/19 12:50:41;;;;;;;;;;;;;;;;;;5079001;28;19916;-70
2022/05/19 12:53:28;;;;;;;;;;;;;;;;;;5075748;28;20214;-65
2022/05/19 12:56:13;;;;;;;;;;;;;;;;;;5070109;28;20257;-73
2022/05/19 12:58:59;;;;;;;;;;;;;;;;;;5080057;28;19934;-72
2022/05/19 13:01:44;;;;;;;;;;;;;;;;;;5068854;28;20359;-75
2022/05/19 13:04:31;;;;;;;;;;;;;;;;;;5054243;28;19920;-77
2022/05/19 13:07:16;;;;;;;;;;;;;;;;;;5058114;28;20345;-72
2022/05/19 13:10:02;;;;;;;;;;;;;;;;;;5071047;28;19927;-73
2022/05/19 13:12:47;;;;;;;;;;;;;;;;;;5075800;28;20000;-65
2022/05/19 13:15:33;;;;;;;;;;;;;;;;;;5067601;28;20390;-65
2022/05/19 13:18:18;;;;;;;;;;;;;;;;;;5064920;28;19952;-65
2022/05/19 13:21:04;;;;;;;;;;;;;;;;;;5073408;28;20331;-67
2022/05/19 13:23:49;;;;;;;;;;;;;;;;;;5071364;28;19971;-66
2022/05/19 13:26:35;;;;;;;;;;;;;;;;;;5064577;28;19924;-67
2022/05/19 13:32:25;;;;;;;;;;;;;;;;;;5084797;28;20351;-69
2022/05/19 13:35:10;;;;;;;;;;;;;;;;;;5055455;28;20232;-72
2022/05/19 13:37:57;;;;;;;;;;;;;;;;;;5054056;28;19998;-71
2022/05/19 13:40:43;;;;;;;;;;;;;;;;;;5076406;28;19999;-71
2022/05/19 13:43:29;;;;;;;;;;;;;;;;;;5075333;28;19916;-71
2022/05/19 13:46:14;;;;;;;;;;;;;;;;;;5079842;28;19948;-71
2022/05/19 13:49:00;;;;;;;;;;;;;;;;;;5073462;28;19921;-68
2022/05/19 13:51:45;;;;;;;;;;;;;;;;;;5064922;28;20354;-66
2022/05/19 13:54:31;;;;;;;;;;;;;;;;;;5056154;28;19913;-64
2022/05/19 13:57:17;;;;;;;;;;;;;;;;;;5077748;28;20379;-65
2022/05/19 14:00:03;;;;;;;;;;;;;;;;;;5060420;28;19924;-65
2022/05/19 14:02:48;;;;;;;;;;;;;;;;;;5051409;28;20354;-63
2022/05/19 14:05:34;;;;;;;;;;;;;;;;;;5063395;28;19912;-66
2022/05/19 14:08:19;;;;;;;;;;;;;;;;;;5072005;28;19940;-66
2022/05/19 14:11:05;;;;;;;;;;;;;;;;;;5055708;28;19923;-63
2022/05/19 14:13:50;;;;;;;;;;;;;;;;;;5074631;28;19908;-61
2022/05/19 14:16:36;;;;;;;;;;;;;;;;;;5069323;28;19999;-62
2022/05/19 14:19:22;;;;;;;;;;;;;;;;;;5066467;28;19916;-62
2022/05/19 14:22:07;;;;;;;;;;;;;;;;;;5073148;28;19913;-62
2022/05/19 14:24:53;;;;;;;;;;;;;;;;;;5070843;28;19913;-69
2022/05/19 14:27:38;;;;;;;;;;;;;;;;;;5065579;28;19912;-73
2022/05/19 14:30:24;;;;;;;;;;;;;;;;;;5072326;28;20295;-70
2022/05/19 14:33:09;;;;;;;;;;;;;;;;;;5076967;28;20017;-69
2022/05/19 14:35:54;;;;;;;;;;;;;;;;;;5060524;28;19912;-70
2022/05/19 14:38:40;;;;;;;;;;;;;;;;;;5072189;28;19920;-69
2022/05/19 14:44:29;;;;;;;;;;;;;;;;;;5072360;28;20003;-70
2022/05/19 14:47:15;;;;;;;;;;;;;;;;;;5055207;28;19912;-61
2022/05/19 14:50:00;;;;;;;;;;;;;;;;;;5070228;28;20401;-63
2022/05/19 14:52:46;;;;;;;;;;;;;;;;;;5065183;28;19936;-64
2022/05/19 14:55:32;;;;;;;;;;;;;;;;;;5071426;28;20005;-65
2022/05/19 14:58:17;;;;;;;;;;;;;;;;;;5071919;28;19919;-64
2022/05/19 15:01:03;;;;;;;;;;;;;;;;;;5071245;28;19908;-58
2022/05/19 15:03:48;;;;;;;;;;;;;;;;;;5068252;28;19912;-65
2022/05/19 15:06:34;;;;;;;;;;;;;;;;;;5072440;28;19916;-62
2022/05/19 15:09:19;;;;;;;;;;;;;;;;;;5072850;28;19968;-62
2022/05/19 15:12:05;;;;;;;;;;;;;;;;;;5061206;28;19913;-62
2022/05/19 15:14:50;;;;;;;;;;;;;;;;;;5074178;28;19989;-63
2022/05/19 15:17:36;;;;;;;;;;;;;;;;;;5065926;28;19912;-66
2022/05/19 15:20:21;;;;;;;;;;;;;;;;;;5078398;28;19942;-68
2022/05/19 15:23:07;;;;;;;;;;;;;;;;;;5068921;28;19958;-65
2022/05/19 15:25:52;;;;;;;;;;;;;;;;;;5075909;28;20274;-67
2022/05/19 15:28:39;;;;;;;;;;;;;;;;;;5087183;28;19916;-67
2022/05/19 15:31:25;;;;;;;;;;;;;;;;;;5064359;28;20283;-66
2022/05/19 15:34:11;;;;;;;;;;;;;;;;;;5071634;28;20368;-66
2022/05/19 15:36:57;;;;;;;;;;;;;;;;;;5067189;28;19916;-66
2022/05/19 15:39:42;;;;;;;;;;;;;;;;;;5071937;28;20085;-66
2022/05/19 15:42:27;;;;;;;;;;;;;;;;;;5070770;28;19958;-69
2022/05/19 15:45:13;;;;;;;;;;;;;;;;;;5075458;28;19915;-67
2022/05/19 15:47:59;;;;;;;;;;;;;;;;;;5074690;28;19909;-65
2022/05/19 15:50:45;;;;;;;;;;;;;;;;;;5062860;28;19966;-65
2022/05/19 15:53:30;;;;;;;;;;;;;;;;;;5074913;28;19920;-68
2022/05/19 15:56:15;;;;;;;;;;;;;;;;;;5072950;28;20394;-62
2022/05/19 15:59:01;;;;;;;;;;;;;;;;;;5075808;28;19952;-67
2022/05/19 16:01:46;;;;;;;;;;;;;;;;;;5065261;28;19962;-67
2022/05/19 16:04:32;;;;;;;;;;;;;;;;;;5076174;28;19967;-66
2022/05/19 16:07:17;;;;;;;;;;;;;;;;;;5077689;28;20290;-67
2022/05/19 16:10:03;;;;;;;;;;;;;;;;;;5070065;28;19928;-66
2022/05/19 16:12:48;;;;;;;;;;;;;;;;;;5060741;28;20278;-68
2022/05/19 16:15:34;;;;;;;;;;;;;;;;;;5078400;28;19928;-59
2022/05/19 16:18:20;;;;;;;;;;;;;;;;;;5074654;28;20273;-60
2022/05/19 16:21:06;;;;;;;;;;;;;;;;;;5077835;28;20007;-60
2022/05/19 16:23:51;;;;;;;;;;;;;;;;;;5071275;28;19916;-60
2022/05/19 16:26:37;;;;;;;;;;;;;;;;;;5072158;28;19943;-60
2022/05/19 16:29:23;;;;;;;;;;;;;;;;;;5076231;28;19920;-60
2022/05/19 16:32:09;;;;;;;;;;;;;;;;;;5051524;28;20340;-59
2022/05/19 16:34:54;;;;;;;;;;;;;;;;;;5064483;28;20007;-60
2022/05/19 16:37:40;;;;;;;;;;;;;;;;;;5081376;28;19912;-65
2022/05/19 16:40:25;;;;;;;;;;;;;;;;;;5071440;28;20367;-67
2022/05/19 16:43:11;;;;;;;;;;;;;;;;;;5061832;28;20282;-67
2022/05/19 16:45:56;;;;;;;;;;;;;;;;;;5082409;28;19951;-66
2022/05/19 16:48:44;;;;;;;;;;;;;;;;;;5064761;28;19924;-66
2022/05/19 16:51:31;;;;;;;;;;;;;;;;;;5061383;28;19912;-58
2022/05/19 17:00:25;;;;;;;;;;;;;;;;;;5074167;28;19999;-67
2022/05/19 17:03:10;;;;;;;;;;;;;;;;;;5076403;28;19916;-68
2022/05/19 17:05:58;;;;;;;;;;;;;;;;;;5073214;28;20510;-67
2022/05/19 17:08:43;;;;;;;;;;;;;;;;;;5076648;28;20363;-66
2022/05/19 17:11:29;;;;;;;;;;;;;;;;;;5075894;28;19912;-58
2022/05/19 17:14:14;;;;;;;;;;;;;;;;;;5079752;28;19916;-61
2022/05/19 17:17:00;;;;;;;;;;;;;;;;;;5062003;28;19921;-61
2022/05/19 17:19:45;;;;;;;;;;;;;;;;;;5071414;28;20272;-62
2022/05/19 17:22:31;;;;;;;;;;;;;;;;;;5067396;28;19921;-61
2022/05/19 17:25:16;;;;;;;;;;;;;;;;;;5071229;28;19971;-62
2022/05/19 17:28:02;;;;;;;;;;;;;;;;;;5072490;28;19950;-62
2022/05/19 17:30:47;;;;;;;;;;;;;;;;;;5074323;28;20398;-60
2022/05/19 17:33:33;;;;;;;;;;;;;;;;;;5069723;28;20268;-60
2022/05/19 17:36:18;;;;;;;;;;;;;;;;;;5085150;28;19958;-59
2022/05/19 17:39:04;;;;;;;;;;;;;;;;;;5073743;28;20093;-59
2022/05/19 17:41:49;;;;;;;;;;;;;;;;;;5072642;28;20268;-54
2022/05/19 17:44:35;;;;;;;;;;;;;;;;;;5073954;28;19912;-56
2022/05/19 17:47:21;;;;;;;;;;;;;;;;;;5059277;28;19919;-62
2022/05/19 17:50:06;;;;;;;;;;;;;;;;;;5070969;28;20027;-65
2022/05/19 17:52:52;;;;;;;;;;;;;;;;;;5077120;28;19920;-67
2022/05/19 17:55:37;;;;;;;;;;;;;;;;;;5078281;28;20268;-66
2022/05/19 17:58:22;;;;;;;;;;;;;;;;;;5072703;28;20007;-67
2022/05/19 18:01:08;;;;;;;;;;;;;;;;;;5075341;28;19913;-64
2022/05/19 18:03:53;;;;;;;;;;;;;;;;;;5073262;28;19912;-64
2022/05/19 18:06:39;;;;;;;;;;;;;;;;;;5071043;28;19919;-66
2022/05/19 18:09:24;;;;;;;;;;;;;;;;;;5079342;28;19928;-60
2022/05/19 18:12:10;;;;;;;;;;;;;;;;;;5063236;28;20270;-61
2022/05/19 18:21:05;;;;;;;;;;;;;;;;;;5070919;28;19913;-58
2022/05/19 18:23:50;;;;;;;;;;;;;;;;;;5075539;28;19913;-64
2022/05/19 18:26:36;;;;;;;;;;;;;;;;;;5073120;28;19920;-59
2022/05/19 18:29:21;;;;;;;;;;;;;;;;;;5077823;28;20295;-60
2022/05/19 18:32:07;;;;;;;;;;;;;;;;;;5078726;28;19920;-59
2022/05/19 18:34:52;;;;;;;;;;;;;;;;;;5067603;28;19956;-59
2022/05/19 18:37:38;;;;;;;;;;;;;;;;;;5076306;28;19915;-59
2022/05/19 18:46:31;;;;;;;;;;;;;;;;;;5068510;28;19932;-60
2022/05/19 18:49:19;;;;;;;;;;;;;;;;;;5070751;28;19932;-62
2022/05/19 18:52:05;;;;;;;;;;;;;;;;;;5053991;28;19998;-60
2022/05/19 18:54:50;;;;;;;;;;;;;;;;;;5073771;28;19924;-61
2022/05/19 18:57:36;;;;;;;;;;;;;;;;;;5068099;28;20430;-59
2022/05/19 19:00:21;;;;;;;;;;;;;;;;;;5066746;28;19984;-68
2022/05/19 19:03:07;;;;;;;;;;;;;;;;;;5071800;28;19916;-59
2022/05/19 19:05:52;;;;;;;;;;;;;;;;;;5070851;28;20394;-63
2022/05/19 19:08:38;;;;;;;;;;;;;;;;;;5078402;28;20009;-64
2022/05/19 19:11:23;;;;;;;;;;;;;;;;;;5071508;28;19920;-63
2022/05/19 19:14:09;;;;;;;;;;;;;;;;;;5075365;28;19917;-62
2022/05/19 19:16:54;;;;;;;;;;;;;;;;;;5072119;28;19977;-64
2022/05/19 19:19:39;;;;;;;;;;;;;;;;;;5071696;28;19916;-59
2022/05/19 19:22:25;;;;;;;;;;;;;;;;;;5061165;28;19916;-59
2022/05/19 19:25:13;;;;;;;;;;;;;;;;;;5069669;28;20013;-58
2022/05/19 19:28:00;;;;;;;;;;;;;;;;;;5081531;28;20315;-59
2022/05/19 19:30:46;;;;;;;;;;;;;;;;;;5081800;28;20330;-57
2022/05/19 19:33:31;;;;;;;;;;;;;;;;;;5084608;28;19920;-60
2022/05/19 19:36:17;;;;;;;;;;;;;;;;;;5046351;28;19924;-57
2022/05/19 19:39:02;;;;;;;;;;;;;;;;;;5067493;28;20355;-64